sensor_id;sensor_type;location;lat;lon;timestamp;P1;durP1;ratioP1;P2;durP2;ratioP2
18090;SDS011;9172;49.948;9.208;2024-03-06T00:00:04;11.93;;;6.93;;
18090;SDS011;9172;49.948;9.208;2024-03-06T00:02:34;11.67;;;6.30;;
18090;SDS011;9172;49.948;9.208;2024-03-06T00:05:04;12.43;;;6.30;;
18090;SDS011;9172;49.948;9.208;2024-03-06T00:07:34;14.63;;;6.23;;
18090;SDS011;9172;49.948;9.208;2024-03-06T00:10:03;13.03;;;6.90;;
18090;SDS011;9172;49.948;9.208;2024-03-06T00:12:32;13.67;;;7.50;;
18090;SDS011;9172;49.948;9.208;2024-03-06T00:15:01;13.20;;;7.30;;
18090;SDS011;9172;49.948;9.208;2024-03-06T00:17:30;12.43;;;6.73;;
18090;SDS011;9172;49.948;9.208;2024-03-06T00:19:58;13.00;;;7.20;;
18090;SDS011;9172;49.948;9.208;2024-03-06T00:22:27;12.23;;;6.50;;
18090;SDS011;9172;49.948;9.208;2024-03-06T00:24:55;14.57;;;6.47;;
18090;SDS011;9172;49.948;9.208;2024-03-06T00:27:24;14.23;;;7.80;;
18090;SDS011;9172;49.948;9.208;2024-03-06T00:29:52;13.50;;;6.73;;
18090;SDS011;9172;49.948;9.208;2024-03-06T00:32:21;12.20;;;6.80;;
18090;SDS011;9172;49.948;9.208;2024-03-06T00:34:49;12.23;;;6.73;;
18090;SDS011;9172;49.948;9.208;2024-03-06T00:37:18;12.47;;;7.40;;
18090;SDS011;9172;49.948;9.208;2024-03-06T00:39:46;14.33;;;6.63;;
18090;SDS011;9172;49.948;9.208;2024-03-06T00:42:15;11.93;;;6.70;;
18090;SDS011;9172;49.948;9.208;2024-03-06T00:44:43;11.87;;;6.53;;
18090;SDS011;9172;49.948;9.208;2024-03-06T00:47:12;13.50;;;7.23;;
18090;SDS011;9172;49.948;9.208;2024-03-06T00:49:41;13.63;;;6.50;;
18090;SDS011;9172;49.948;9.208;2024-03-06T00:52:09;11.87;;;6.50;;
18090;SDS011;9172;49.948;9.208;2024-03-06T00:54:38;12.77;;;7.40;;
18090;SDS011;9172;49.948;9.208;2024-03-06T00:57:07;12.43;;;6.53;;
18090;SDS011;9172;49.948;9.208;2024-03-06T00:59:36;11.73;;;6.77;;
18090;SDS011;9172;49.948;9.208;2024-03-06T01:02:05;14.97;;;7.23;;
18090;SDS011;9172;49.948;9.208;2024-03-06T01:04:33;13.10;;;6.90;;
18090;SDS011;9172;49.948;9.208;2024-03-06T01:07:02;13.90;;;6.77;;
18090;SDS011;9172;49.948;9.208;2024-03-06T01:09:30;13.47;;;6.97;;
18090;SDS011;9172;49.948;9.208;2024-03-06T01:11:59;14.00;;;7.23;;
18090;SDS011;9172;49.948;9.208;2024-03-06T01:14:27;9.60;;;5.87;;
18090;SDS011;9172;49.948;9.208;2024-03-06T01:16:57;13.53;;;7.40;;
18090;SDS011;9172;49.948;9.208;2024-03-06T01:19:26;13.60;;;6.93;;
18090;SDS011;9172;49.948;9.208;2024-03-06T01:21:54;13.20;;;7.23;;
18090;SDS011;9172;49.948;9.208;2024-03-06T01:24:23;11.33;;;6.63;;
18090;SDS011;9172;49.948;9.208;2024-03-06T01:26:52;13.30;;;7.23;;
18090;SDS011;9172;49.948;9.208;2024-03-06T01:29:20;11.27;;;6.20;;
18090;SDS011;9172;49.948;9.208;2024-03-06T01:31:48;13.87;;;6.20;;
18090;SDS011;9172;49.948;9.208;2024-03-06T01:34:17;13.40;;;6.70;;
18090;SDS011;9172;49.948;9.208;2024-03-06T01:36:45;10.63;;;6.37;;
18090;SDS011;9172;49.948;9.208;2024-03-06T01:39:14;11.63;;;6.30;;
18090;SDS011;9172;49.948;9.208;2024-03-06T01:41:45;14.47;;;7.20;;
18090;SDS011;9172;49.948;9.208;2024-03-06T01:44:13;13.10;;;6.70;;
18090;SDS011;9172;49.948;9.208;2024-03-06T01:46:42;10.63;;;6.17;;
18090;SDS011;9172;49.948;9.208;2024-03-06T01:49:12;12.50;;;6.30;;
18090;SDS011;9172;49.948;9.208;2024-03-06T01:51:42;14.77;;;6.30;;
18090;SDS011;9172;49.948;9.208;2024-03-06T01:54:12;10.77;;;5.60;;
18090;SDS011;9172;49.948;9.208;2024-03-06T01:56:43;11.30;;;6.37;;
18090;SDS011;9172;49.948;9.208;2024-03-06T01:59:13;10.33;;;6.47;;
18090;SDS011;9172;49.948;9.208;2024-03-06T02:01:45;14.30;;;6.90;;
18090;SDS011;9172;49.948;9.208;2024-03-06T02:04:14;12.33;;;6.73;;
18090;SDS011;9172;49.948;9.208;2024-03-06T02:06:44;11.97;;;7.10;;
18090;SDS011;9172;49.948;9.208;2024-03-06T02:09:13;12.73;;;6.87;;
18090;SDS011;9172;49.948;9.208;2024-03-06T02:11:43;14.83;;;7.53;;
18090;SDS011;9172;49.948;9.208;2024-03-06T02:14:13;14.17;;;7.40;;
18090;SDS011;9172;49.948;9.208;2024-03-06T02:16:41;12.50;;;6.63;;
18090;SDS011;9172;49.948;9.208;2024-03-06T02:19:10;11.57;;;6.37;;
18090;SDS011;9172;49.948;9.208;2024-03-06T02:21:38;13.93;;;7.30;;
18090;SDS011;9172;49.948;9.208;2024-03-06T02:24:07;13.90;;;6.97;;
18090;SDS011;9172;49.948;9.208;2024-03-06T02:26:39;13.30;;;7.23;;
18090;SDS011;9172;49.948;9.208;2024-03-06T02:29:08;14.40;;;6.33;;
18090;SDS011;9172;49.948;9.208;2024-03-06T02:31:37;13.33;;;6.83;;
18090;SDS011;9172;49.948;9.208;2024-03-06T02:34:06;11.90;;;6.47;;
18090;SDS011;9172;49.948;9.208;2024-03-06T02:36:34;12.43;;;6.83;;
18090;SDS011;9172;49.948;9.208;2024-03-06T02:39:03;13.10;;;6.90;;
18090;SDS011;9172;49.948;9.208;2024-03-06T02:41:34;13.93;;;7.20;;
18090;SDS011;9172;49.948;9.208;2024-03-06T02:44:03;14.30;;;6.97;;
18090;SDS011;9172;49.948;9.208;2024-03-06T02:46:33;12.50;;;7.03;;
18090;SDS011;9172;49.948;9.208;2024-03-06T02:49:02;11.60;;;6.47;;
18090;SDS011;9172;49.948;9.208;2024-03-06T02:51:32;12.07;;;6.50;;
18090;SDS011;9172;49.948;9.208;2024-03-06T02:54:00;14.40;;;6.97;;
18090;SDS011;9172;49.948;9.208;2024-03-06T02:56:29;13.57;;;7.33;;
18090;SDS011;9172;49.948;9.208;2024-03-06T02:58:57;15.07;;;7.13;;
18090;SDS011;9172;49.948;9.208;2024-03-06T03:01:28;15.73;;;7.33;;
18090;SDS011;9172;49.948;9.208;2024-03-06T03:03:57;13.70;;;6.83;;
18090;SDS011;9172;49.948;9.208;2024-03-06T03:06:25;11.33;;;6.23;;
18090;SDS011;9172;49.948;9.208;2024-03-06T03:08:55;11.90;;;6.90;;
18090;SDS011;9172;49.948;9.208;2024-03-06T03:11:23;13.30;;;6.70;;
18090;SDS011;9172;49.948;9.208;2024-03-06T03:13:52;12.57;;;6.70;;
18090;SDS011;9172;49.948;9.208;2024-03-06T03:16:21;12.80;;;7.10;;
18090;SDS011;9172;49.948;9.208;2024-03-06T03:18:49;12.03;;;6.30;;
18090;SDS011;9172;49.948;9.208;2024-03-06T03:21:18;11.27;;;6.83;;
18090;SDS011;9172;49.948;9.208;2024-03-06T03:23:46;10.53;;;6.77;;
18090;SDS011;9172;49.948;9.208;2024-03-06T03:26:16;13.93;;;7.47;;
18090;SDS011;9172;49.948;9.208;2024-03-06T03:28:44;19.13;;;8.77;;
18090;SDS011;9172;49.948;9.208;2024-03-06T03:31:13;13.77;;;8.27;;
18090;SDS011;9172;49.948;9.208;2024-03-06T03:33:41;16.90;;;7.67;;
18090;SDS011;9172;49.948;9.208;2024-03-06T03:36:10;12.40;;;6.90;;
18090;SDS011;9172;49.948;9.208;2024-03-06T03:38:38;16.50;;;7.60;;
18090;SDS011;9172;49.948;9.208;2024-03-06T03:41:07;13.97;;;7.37;;
18090;SDS011;9172;49.948;9.208;2024-03-06T03:43:36;16.13;;;7.63;;
18090;SDS011;9172;49.948;9.208;2024-03-06T03:46:06;14.83;;;6.70;;
18090;SDS011;9172;49.948;9.208;2024-03-06T03:48:35;13.10;;;7.47;;
18090;SDS011;9172;49.948;9.208;2024-03-06T03:51:04;15.70;;;6.77;;
18090;SDS011;9172;49.948;9.208;2024-03-06T03:53:33;10.63;;;6.47;;
18090;SDS011;9172;49.948;9.208;2024-03-06T03:56:02;14.17;;;7.67;;
18090;SDS011;9172;49.948;9.208;2024-03-06T03:58:32;16.30;;;7.80;;
18090;SDS011;9172;49.948;9.208;2024-03-06T04:01:01;14.47;;;8.13;;
18090;SDS011;9172;49.948;9.208;2024-03-06T04:03:29;13.87;;;7.83;;
18090;SDS011;9172;49.948;9.208;2024-03-06T04:05:59;14.17;;;7.33;;
18090;SDS011;9172;49.948;9.208;2024-03-06T04:08:28;14.53;;;7.27;;
18090;SDS011;9172;49.948;9.208;2024-03-06T04:10:57;13.23;;;7.37;;
18090;SDS011;9172;49.948;9.208;2024-03-06T04:13:26;13.37;;;7.17;;
18090;SDS011;9172;49.948;9.208;2024-03-06T04:15:54;19.47;;;7.90;;
18090;SDS011;9172;49.948;9.208;2024-03-06T04:18:24;15.20;;;8.03;;
18090;SDS011;9172;49.948;9.208;2024-03-06T04:20:52;17.53;;;7.33;;
18090;SDS011;9172;49.948;9.208;2024-03-06T04:23:21;17.33;;;7.77;;
18090;SDS011;9172;49.948;9.208;2024-03-06T04:25:49;15.00;;;8.07;;
18090;SDS011;9172;49.948;9.208;2024-03-06T04:28:18;14.20;;;7.77;;
18090;SDS011;9172;49.948;9.208;2024-03-06T04:30:47;15.20;;;7.60;;
18090;SDS011;9172;49.948;9.208;2024-03-06T04:33:15;15.20;;;7.77;;
18090;SDS011;9172;49.948;9.208;2024-03-06T04:35:44;15.70;;;7.90;;
18090;SDS011;9172;49.948;9.208;2024-03-06T04:38:12;13.00;;;7.27;;
18090;SDS011;9172;49.948;9.208;2024-03-06T04:40:41;13.70;;;7.70;;
18090;SDS011;9172;49.948;9.208;2024-03-06T04:43:10;12.07;;;6.93;;
18090;SDS011;9172;49.948;9.208;2024-03-06T04:45:39;14.17;;;6.87;;
18090;SDS011;9172;49.948;9.208;2024-03-06T04:48:08;12.17;;;7.20;;
18090;SDS011;9172;49.948;9.208;2024-03-06T04:50:36;15.63;;;7.30;;
18090;SDS011;9172;49.948;9.208;2024-03-06T04:53:05;15.20;;;7.97;;
18090;SDS011;9172;49.948;9.208;2024-03-06T04:55:33;15.87;;;8.50;;
18090;SDS011;9172;49.948;9.208;2024-03-06T04:58:03;15.07;;;7.97;;
18090;SDS011;9172;49.948;9.208;2024-03-06T05:00:32;13.17;;;8.00;;
18090;SDS011;9172;49.948;9.208;2024-03-06T05:03:01;16.00;;;7.73;;
18090;SDS011;9172;49.948;9.208;2024-03-06T05:05:29;17.53;;;8.93;;
18090;SDS011;9172;49.948;9.208;2024-03-06T05:07:58;14.30;;;7.47;;
18090;SDS011;9172;49.948;9.208;2024-03-06T05:10:27;14.13;;;7.47;;
18090;SDS011;9172;49.948;9.208;2024-03-06T05:12:55;13.87;;;7.40;;
18090;SDS011;9172;49.948;9.208;2024-03-06T05:15:24;10.23;;;6.60;;
18090;SDS011;9172;49.948;9.208;2024-03-06T05:17:52;13.27;;;7.07;;
18090;SDS011;9172;49.948;9.208;2024-03-06T05:20:22;18.00;;;7.77;;
18090;SDS011;9172;49.948;9.208;2024-03-06T05:22:50;14.13;;;7.67;;
18090;SDS011;9172;49.948;9.208;2024-03-06T05:25:19;17.20;;;7.93;;
18090;SDS011;9172;49.948;9.208;2024-03-06T05:27:47;17.20;;;8.33;;
18090;SDS011;9172;49.948;9.208;2024-03-06T05:30:16;14.30;;;7.77;;
18090;SDS011;9172;49.948;9.208;2024-03-06T05:32:44;13.50;;;7.23;;
18090;SDS011;9172;49.948;9.208;2024-03-06T05:35:13;17.47;;;8.13;;
18090;SDS011;9172;49.948;9.208;2024-03-06T05:37:42;14.30;;;8.03;;
18090;SDS011;9172;49.948;9.208;2024-03-06T05:40:12;13.70;;;7.57;;
18090;SDS011;9172;49.948;9.208;2024-03-06T05:42:41;13.67;;;7.57;;
18090;SDS011;9172;49.948;9.208;2024-03-06T05:45:09;13.70;;;7.63;;
18090;SDS011;9172;49.948;9.208;2024-03-06T05:47:38;17.80;;;8.20;;
18090;SDS011;9172;49.948;9.208;2024-03-06T05:50:08;15.83;;;8.27;;
18090;SDS011;9172;49.948;9.208;2024-03-06T05:52:36;16.47;;;8.00;;
18090;SDS011;9172;49.948;9.208;2024-03-06T05:55:06;14.57;;;7.70;;
18090;SDS011;9172;49.948;9.208;2024-03-06T05:57:36;17.00;;;8.43;;
18090;SDS011;9172;49.948;9.208;2024-03-06T06:00:06;14.70;;;7.50;;
18090;SDS011;9172;49.948;9.208;2024-03-06T06:02:37;14.83;;;8.03;;
18090;SDS011;9172;49.948;9.208;2024-03-06T06:05:07;15.17;;;8.60;;
18090;SDS011;9172;49.948;9.208;2024-03-06T06:07:35;16.93;;;8.77;;
18090;SDS011;9172;49.948;9.208;2024-03-06T06:10:05;13.70;;;7.70;;
18090;SDS011;9172;49.948;9.208;2024-03-06T06:12:36;16.93;;;8.73;;
18090;SDS011;9172;49.948;9.208;2024-03-06T06:15:05;16.53;;;8.43;;
18090;SDS011;9172;49.948;9.208;2024-03-06T06:17:34;18.13;;;9.67;;
18090;SDS011;9172;49.948;9.208;2024-03-06T06:20:05;17.13;;;9.10;;
18090;SDS011;9172;49.948;9.208;2024-03-06T06:22:36;18.80;;;9.50;;
18090;SDS011;9172;49.948;9.208;2024-03-06T06:25:05;17.60;;;8.10;;
18090;SDS011;9172;49.948;9.208;2024-03-06T06:27:36;18.23;;;8.57;;
18090;SDS011;9172;49.948;9.208;2024-03-06T06:30:06;16.07;;;8.07;;
18090;SDS011;9172;49.948;9.208;2024-03-06T06:32:37;18.33;;;10.03;;
18090;SDS011;9172;49.948;9.208;2024-03-06T06:35:07;17.83;;;9.87;;
18090;SDS011;9172;49.948;9.208;2024-03-06T06:37:37;15.43;;;9.23;;
18090;SDS011;9172;49.948;9.208;2024-03-06T06:40:07;16.37;;;8.80;;
18090;SDS011;9172;49.948;9.208;2024-03-06T06:42:43;16.83;;;8.83;;
18090;SDS011;9172;49.948;9.208;2024-03-06T06:45:15;19.80;;;10.13;;
18090;SDS011;9172;49.948;9.208;2024-03-06T06:47:45;19.67;;;9.80;;
18090;SDS011;9172;49.948;9.208;2024-03-06T06:50:15;19.97;;;10.60;;
18090;SDS011;9172;49.948;9.208;2024-03-06T06:52:44;15.37;;;8.83;;
18090;SDS011;9172;49.948;9.208;2024-03-06T06:55:13;30.70;;;14.67;;
18090;SDS011;9172;49.948;9.208;2024-03-06T06:57:42;27.50;;;12.77;;
18090;SDS011;9172;49.948;9.208;2024-03-06T07:00:11;27.80;;;12.23;;
18090;SDS011;9172;49.948;9.208;2024-03-06T07:02:43;28.83;;;12.77;;
18090;SDS011;9172;49.948;9.208;2024-03-06T07:05:12;24.43;;;12.53;;
18090;SDS011;9172;49.948;9.208;2024-03-06T07:07:40;26.33;;;13.13;;
18090;SDS011;9172;49.948;9.208;2024-03-06T07:10:10;25.40;;;11.57;;
18090;SDS011;9172;49.948;9.208;2024-03-06T07:12:38;21.97;;;10.90;;
18090;SDS011;9172;49.948;9.208;2024-03-06T07:15:07;20.50;;;10.97;;
18090;SDS011;9172;49.948;9.208;2024-03-06T07:17:36;23.37;;;11.80;;
18090;SDS011;9172;49.948;9.208;2024-03-06T07:20:06;19.40;;;11.73;;
18090;SDS011;9172;49.948;9.208;2024-03-06T07:22:36;21.20;;;12.13;;
18090;SDS011;9172;49.948;9.208;2024-03-06T07:25:05;29.60;;;14.20;;
18090;SDS011;9172;49.948;9.208;2024-03-06T07:27:34;26.93;;;13.27;;
18090;SDS011;9172;49.948;9.208;2024-03-06T07:30:03;32.27;;;15.07;;
18090;SDS011;9172;49.948;9.208;2024-03-06T07:32:34;36.33;;;14.77;;
18090;SDS011;9172;49.948;9.208;2024-03-06T07:35:02;33.87;;;15.27;;
18090;SDS011;9172;49.948;9.208;2024-03-06T07:37:32;35.77;;;14.43;;
18090;SDS011;9172;49.948;9.208;2024-03-06T07:40:01;35.83;;;15.77;;
18090;SDS011;9172;49.948;9.208;2024-03-06T07:42:31;31.00;;;13.70;;
18090;SDS011;9172;49.948;9.208;2024-03-06T07:45:00;34.63;;;15.20;;
18090;SDS011;9172;49.948;9.208;2024-03-06T07:47:28;30.10;;;15.00;;
18090;SDS011;9172;49.948;9.208;2024-03-06T07:49:57;38.40;;;16.03;;
18090;SDS011;9172;49.948;9.208;2024-03-06T07:52:25;35.43;;;16.20;;
18090;SDS011;9172;49.948;9.208;2024-03-06T07:54:54;28.80;;;13.43;;
18090;SDS011;9172;49.948;9.208;2024-03-06T07:57:33;26.10;;;13.77;;
18090;SDS011;9172;49.948;9.208;2024-03-06T08:00:01;31.40;;;13.67;;
18090;SDS011;9172;49.948;9.208;2024-03-06T08:02:34;28.10;;;12.83;;
18090;SDS011;9172;49.948;9.208;2024-03-06T08:05:05;30.93;;;12.97;;
18090;SDS011;9172;49.948;9.208;2024-03-06T08:07:35;27.57;;;12.37;;
18090;SDS011;9172;49.948;9.208;2024-03-06T08:10:04;26.33;;;13.17;;
18090;SDS011;9172;49.948;9.208;2024-03-06T08:12:33;25.47;;;12.20;;
18090;SDS011;9172;49.948;9.208;2024-03-06T08:15:02;26.93;;;12.13;;
18090;SDS011;9172;49.948;9.208;2024-03-06T08:17:34;27.43;;;12.93;;
18090;SDS011;9172;49.948;9.208;2024-03-06T08:20:03;29.23;;;13.17;;
18090;SDS011;9172;49.948;9.208;2024-03-06T08:22:33;43.90;;;13.77;;
18090;SDS011;9172;49.948;9.208;2024-03-06T08:25:06;78.47;;;15.70;;
18090;SDS011;9172;49.948;9.208;2024-03-06T08:27:35;36.63;;;12.93;;
18090;SDS011;9172;49.948;9.208;2024-03-06T08:30:07;44.43;;;14.63;;
18090;SDS011;9172;49.948;9.208;2024-03-06T08:32:36;65.33;;;15.60;;
18090;SDS011;9172;49.948;9.208;2024-03-06T08:35:08;83.97;;;16.30;;
18090;SDS011;9172;49.948;9.208;2024-03-06T08:37:37;34.90;;;13.53;;
18090;SDS011;9172;49.948;9.208;2024-03-06T08:40:07;31.30;;;13.53;;
18090;SDS011;9172;49.948;9.208;2024-03-06T08:42:41;28.77;;;13.47;;
18090;SDS011;9172;49.948;9.208;2024-03-06T08:45:10;30.63;;;13.80;;
18090;SDS011;9172;49.948;9.208;2024-03-06T08:47:38;44.83;;;15.53;;
18090;SDS011;9172;49.948;9.208;2024-03-06T08:50:08;32.80;;;14.67;;
18090;SDS011;9172;49.948;9.208;2024-03-06T08:52:37;47.53;;;15.70;;
18090;SDS011;9172;49.948;9.208;2024-03-06T08:55:07;36.90;;;15.17;;
18090;SDS011;9172;49.948;9.208;2024-03-06T08:57:36;33.53;;;13.23;;
18090;SDS011;9172;49.948;9.208;2024-03-06T09:00:07;35.20;;;14.60;;
18090;SDS011;9172;49.948;9.208;2024-03-06T09:02:37;47.30;;;15.07;;
18090;SDS011;9172;49.948;9.208;2024-03-06T09:05:07;40.37;;;17.27;;
18090;SDS011;9172;49.948;9.208;2024-03-06T09:07:38;47.57;;;15.80;;
18090;SDS011;9172;49.948;9.208;2024-03-06T09:10:07;44.03;;;15.93;;
18090;SDS011;9172;49.948;9.208;2024-03-06T09:12:37;39.33;;;16.27;;
18090;SDS011;9172;49.948;9.208;2024-03-06T09:15:07;36.60;;;15.13;;
18090;SDS011;9172;49.948;9.208;2024-03-06T09:17:37;39.77;;;15.87;;
18090;SDS011;9172;49.948;9.208;2024-03-06T09:20:06;42.57;;;17.60;;
18090;SDS011;9172;49.948;9.208;2024-03-06T09:22:37;47.60;;;16.93;;
18090;SDS011;9172;49.948;9.208;2024-03-06T09:25:06;39.00;;;16.73;;
18090;SDS011;9172;49.948;9.208;2024-03-06T09:27:35;38.03;;;15.90;;
18090;SDS011;9172;49.948;9.208;2024-03-06T09:30:05;44.30;;;17.33;;
18090;SDS011;9172;49.948;9.208;2024-03-06T09:32:35;38.63;;;16.47;;
18090;SDS011;9172;49.948;9.208;2024-03-06T09:35:06;39.70;;;16.80;;
18090;SDS011;9172;49.948;9.208;2024-03-06T09:37:35;41.87;;;17.27;;
18090;SDS011;9172;49.948;9.208;2024-03-06T09:40:05;43.10;;;18.20;;
18090;SDS011;9172;49.948;9.208;2024-03-06T09:42:36;46.67;;;16.63;;
18090;SDS011;9172;49.948;9.208;2024-03-06T09:45:05;40.40;;;17.60;;
18090;SDS011;9172;49.948;9.208;2024-03-06T09:47:34;38.00;;;15.90;;
18090;SDS011;9172;49.948;9.208;2024-03-06T09:50:07;38.27;;;17.27;;
18090;SDS011;9172;49.948;9.208;2024-03-06T09:52:37;37.47;;;16.10;;
18090;SDS011;9172;49.948;9.208;2024-03-06T09:55:09;38.70;;;16.70;;
18090;SDS011;9172;49.948;9.208;2024-03-06T09:57:38;41.87;;;17.20;;
18090;SDS011;9172;49.948;9.208;2024-03-06T10:00:08;40.80;;;17.13;;
18090;SDS011;9172;49.948;9.208;2024-03-06T10:02:51;43.90;;;17.80;;
18090;SDS011;9172;49.948;9.208;2024-03-06T10:05:20;50.47;;;17.07;;
18090;SDS011;9172;49.948;9.208;2024-03-06T10:07:51;43.43;;;17.30;;
18090;SDS011;9172;49.948;9.208;2024-03-06T10:10:20;40.90;;;16.43;;
18090;SDS011;9172;49.948;9.208;2024-03-06T10:12:49;49.87;;;19.27;;
18090;SDS011;9172;49.948;9.208;2024-03-06T10:15:18;39.93;;;17.07;;
18090;SDS011;9172;49.948;9.208;2024-03-06T10:17:47;40.27;;;17.50;;
18090;SDS011;9172;49.948;9.208;2024-03-06T10:20:20;43.30;;;16.00;;
18090;SDS011;9172;49.948;9.208;2024-03-06T10:22:50;45.97;;;17.93;;
18090;SDS011;9172;49.948;9.208;2024-03-06T10:25:20;38.27;;;16.00;;
18090;SDS011;9172;49.948;9.208;2024-03-06T10:28:03;35.77;;;14.93;;
18090;SDS011;9172;49.948;9.208;2024-03-06T10:30:33;37.03;;;14.03;;
18090;SDS011;9172;49.948;9.208;2024-03-06T10:33:14;32.67;;;13.67;;
18090;SDS011;9172;49.948;9.208;2024-03-06T10:35:45;41.33;;;16.30;;
18090;SDS011;9172;49.948;9.208;2024-03-06T10:38:15;32.47;;;13.67;;
18090;SDS011;9172;49.948;9.208;2024-03-06T10:40:46;31.80;;;13.63;;
18090;SDS011;9172;49.948;9.208;2024-03-06T10:43:16;26.97;;;12.33;;
18090;SDS011;9172;49.948;9.208;2024-03-06T10:45:46;25.03;;;11.40;;
18090;SDS011;9172;49.948;9.208;2024-03-06T10:48:17;28.77;;;12.23;;
18090;SDS011;9172;49.948;9.208;2024-03-06T10:50:46;26.73;;;11.63;;
18090;SDS011;9172;49.948;9.208;2024-03-06T10:53:16;27.50;;;11.47;;
18090;SDS011;9172;49.948;9.208;2024-03-06T10:55:45;25.43;;;11.37;;
18090;SDS011;9172;49.948;9.208;2024-03-06T10:58:15;32.97;;;14.07;;
18090;SDS011;9172;49.948;9.208;2024-03-06T11:00:46;34.63;;;14.83;;
18090;SDS011;9172;49.948;9.208;2024-03-06T11:03:15;29.77;;;13.93;;
18090;SDS011;9172;49.948;9.208;2024-03-06T11:05:44;38.03;;;15.70;;
18090;SDS011;9172;49.948;9.208;2024-03-06T11:08:15;43.47;;;17.97;;
18090;SDS011;9172;49.948;9.208;2024-03-06T11:10:44;40.23;;;16.93;;
18090;SDS011;9172;49.948;9.208;2024-03-06T11:13:21;41.03;;;15.07;;
18090;SDS011;9172;49.948;9.208;2024-03-06T11:15:50;32.17;;;14.43;;
18090;SDS011;9172;49.948;9.208;2024-03-06T11:21:29;32.70;;;14.13;;
18090;SDS011;9172;49.948;9.208;2024-03-06T11:24:14;30.47;;;12.60;;
18090;SDS011;9172;49.948;9.208;2024-03-06T11:27:04;31.57;;;13.97;;
18090;SDS011;9172;49.948;9.208;2024-03-06T11:32:33;25.90;;;13.13;;
18090;SDS011;9172;49.948;9.208;2024-03-06T11:35:02;28.83;;;13.40;;
18090;SDS011;9172;49.948;9.208;2024-03-06T11:37:34;24.57;;;10.97;;
18090;SDS011;9172;49.948;9.208;2024-03-06T11:40:05;29.80;;;13.03;;
18090;SDS011;9172;49.948;9.208;2024-03-06T11:42:37;23.77;;;10.90;;
18090;SDS011;9172;49.948;9.208;2024-03-06T11:45:13;24.53;;;11.47;;
18090;SDS011;9172;49.948;9.208;2024-03-06T11:47:59;22.40;;;10.70;;
18090;SDS011;9172;49.948;9.208;2024-03-06T11:50:28;24.33;;;9.53;;
18090;SDS011;9172;49.948;9.208;2024-03-06T11:52:58;21.03;;;9.23;;
18090;SDS011;9172;49.948;9.208;2024-03-06T11:55:26;19.53;;;8.87;;
18090;SDS011;9172;49.948;9.208;2024-03-06T11:57:55;22.13;;;9.33;;
18090;SDS011;9172;49.948;9.208;2024-03-06T12:00:24;24.63;;;9.93;;
18090;SDS011;9172;49.948;9.208;2024-03-06T12:02:52;22.33;;;8.57;;
18090;SDS011;9172;49.948;9.208;2024-03-06T12:05:21;19.23;;;8.47;;
18090;SDS011;9172;49.948;9.208;2024-03-06T12:07:51;21.63;;;8.50;;
18090;SDS011;9172;49.948;9.208;2024-03-06T12:10:20;17.17;;;8.40;;
18090;SDS011;9172;49.948;9.208;2024-03-06T12:12:49;17.30;;;8.70;;
18090;SDS011;9172;49.948;9.208;2024-03-06T12:15:18;24.47;;;8.93;;
18090;SDS011;9172;49.948;9.208;2024-03-06T12:17:47;15.90;;;7.90;;
18090;SDS011;9172;49.948;9.208;2024-03-06T12:20:17;18.20;;;9.00;;
18090;SDS011;9172;49.948;9.208;2024-03-06T12:22:48;17.47;;;7.73;;
18090;SDS011;9172;49.948;9.208;2024-03-06T12:25:20;15.37;;;8.00;;
18090;SDS011;9172;49.948;9.208;2024-03-06T12:27:50;18.77;;;8.23;;
18090;SDS011;9172;49.948;9.208;2024-03-06T12:30:21;16.33;;;7.47;;
18090;SDS011;9172;49.948;9.208;2024-03-06T12:32:56;15.87;;;7.57;;
18090;SDS011;9172;49.948;9.208;2024-03-06T12:35:25;13.77;;;7.80;;
18090;SDS011;9172;49.948;9.208;2024-03-06T12:37:54;17.40;;;7.13;;
18090;SDS011;9172;49.948;9.208;2024-03-06T12:40:23;19.70;;;8.97;;
18090;SDS011;9172;49.948;9.208;2024-03-06T12:42:53;15.80;;;7.57;;
18090;SDS011;9172;49.948;9.208;2024-03-06T12:45:22;16.90;;;7.23;;
18090;SDS011;9172;49.948;9.208;2024-03-06T12:47:51;15.23;;;6.60;;
18090;SDS011;9172;49.948;9.208;2024-03-06T12:50:22;18.10;;;7.87;;
18090;SDS011;9172;49.948;9.208;2024-03-06T12:52:51;15.63;;;7.00;;
18090;SDS011;9172;49.948;9.208;2024-03-06T12:55:19;14.40;;;6.70;;
18090;SDS011;9172;49.948;9.208;2024-03-06T12:57:48;16.57;;;8.03;;
18090;SDS011;9172;49.948;9.208;2024-03-06T13:00:17;15.63;;;7.10;;
18090;SDS011;9172;49.948;9.208;2024-03-06T13:02:46;14.97;;;6.27;;
18090;SDS011;9172;49.948;9.208;2024-03-06T13:05:16;15.00;;;6.87;;
18090;SDS011;9172;49.948;9.208;2024-03-06T13:07:45;16.57;;;7.03;;
18090;SDS011;9172;49.948;9.208;2024-03-06T13:10:14;18.50;;;7.93;;
18090;SDS011;9172;49.948;9.208;2024-03-06T13:12:43;18.13;;;7.53;;
18090;SDS011;9172;49.948;9.208;2024-03-06T13:15:11;16.17;;;7.93;;
18090;SDS011;9172;49.948;9.208;2024-03-06T13:17:40;14.07;;;7.47;;
18090;SDS011;9172;49.948;9.208;2024-03-06T13:20:09;16.23;;;7.20;;
18090;SDS011;9172;49.948;9.208;2024-03-06T13:22:38;13.03;;;6.63;;
18090;SDS011;9172;49.948;9.208;2024-03-06T13:25:07;14.33;;;7.50;;
18090;SDS011;9172;49.948;9.208;2024-03-06T13:27:36;17.63;;;6.73;;
18090;SDS011;9172;49.948;9.208;2024-03-06T13:30:06;15.97;;;7.50;;
18090;SDS011;9172;49.948;9.208;2024-03-06T13:32:38;12.03;;;6.20;;
18090;SDS011;9172;49.948;9.208;2024-03-06T13:35:08;13.73;;;6.53;;
18090;SDS011;9172;49.948;9.208;2024-03-06T13:37:39;13.67;;;6.17;;
18090;SDS011;9172;49.948;9.208;2024-03-06T13:40:08;13.20;;;7.03;;
18090;SDS011;9172;49.948;9.208;2024-03-06T13:42:39;14.50;;;6.90;;
18090;SDS011;9172;49.948;9.208;2024-03-06T13:45:09;13.13;;;6.60;;
18090;SDS011;9172;49.948;9.208;2024-03-06T13:47:38;16.00;;;6.87;;
18090;SDS011;9172;49.948;9.208;2024-03-06T13:50:09;16.27;;;7.70;;
18090;SDS011;9172;49.948;9.208;2024-03-06T13:52:38;17.30;;;7.73;;
18090;SDS011;9172;49.948;9.208;2024-03-06T13:55:07;16.13;;;7.70;;
18090;SDS011;9172;49.948;9.208;2024-03-06T13:57:37;19.30;;;8.37;;
18090;SDS011;9172;49.948;9.208;2024-03-06T14:00:07;17.57;;;7.40;;
18090;SDS011;9172;49.948;9.208;2024-03-06T14:02:42;15.53;;;6.93;;
18090;SDS011;9172;49.948;9.208;2024-03-06T14:05:12;15.80;;;6.97;;
18090;SDS011;9172;49.948;9.208;2024-03-06T14:07:41;14.50;;;6.93;;
18090;SDS011;9172;49.948;9.208;2024-03-06T14:10:10;13.70;;;7.07;;
18090;SDS011;9172;49.948;9.208;2024-03-06T14:12:40;17.27;;;6.93;;
18090;SDS011;9172;49.948;9.208;2024-03-06T14:15:09;16.07;;;7.33;;
18090;SDS011;9172;49.948;9.208;2024-03-06T14:17:38;15.33;;;7.03;;
18090;SDS011;9172;49.948;9.208;2024-03-06T14:20:07;17.47;;;8.47;;
18090;SDS011;9172;49.948;9.208;2024-03-06T14:22:38;19.70;;;7.40;;
18090;SDS011;9172;49.948;9.208;2024-03-06T14:25:07;13.73;;;6.33;;
18090;SDS011;9172;49.948;9.208;2024-03-06T14:27:36;11.87;;;5.90;;
18090;SDS011;9172;49.948;9.208;2024-03-06T14:30:06;11.97;;;5.90;;
18090;SDS011;9172;49.948;9.208;2024-03-06T14:32:37;14.30;;;7.03;;
18090;SDS011;9172;49.948;9.208;2024-03-06T14:35:07;14.27;;;6.63;;
18090;SDS011;9172;49.948;9.208;2024-03-06T14:37:53;15.27;;;6.57;;
18090;SDS011;9172;49.948;9.208;2024-03-06T14:40:21;12.20;;;6.53;;
18090;SDS011;9172;49.948;9.208;2024-03-06T14:42:50;14.00;;;6.50;;
18090;SDS011;9172;49.948;9.208;2024-03-06T14:45:18;13.63;;;6.13;;
18090;SDS011;9172;49.948;9.208;2024-03-06T14:47:47;12.37;;;6.90;;
18090;SDS011;9172;49.948;9.208;2024-03-06T14:50:16;12.67;;;5.97;;
18090;SDS011;9172;49.948;9.208;2024-03-06T14:52:44;13.50;;;6.67;;
18090;SDS011;9172;49.948;9.208;2024-03-06T14:55:13;14.17;;;6.07;;
18090;SDS011;9172;49.948;9.208;2024-03-06T14:57:43;12.40;;;6.10;;
18090;SDS011;9172;49.948;9.208;2024-03-06T15:00:12;16.07;;;6.50;;
18090;SDS011;9172;49.948;9.208;2024-03-06T15:02:43;17.30;;;6.80;;